sensor_id;sensor_type;location;lat;lon;timestamp;P1;durP1;ratioP1;P2;durP2;ratioP2
60370;SDS011;48550;40.588;49.684;2023-10-08T00:00:49;13.90;;;6.50;;
60370;SDS011;48550;40.588;49.684;2023-10-08T00:03:15;17.98;;;6.75;;
60370;SDS011;48550;40.588;49.684;2023-10-08T00:05:45;24.20;;;6.78;;
60370;SDS011;48550;40.588;49.684;2023-10-08T00:08:12;16.10;;;7.05;;
60370;SDS011;48550;40.588;49.684;2023-10-08T00:10:41;16.00;;;6.50;;
60370;SDS011;48550;40.588;49.684;2023-10-08T00:13:09;16.73;;;6.65;;
60370;SDS011;48550;40.588;49.684;2023-10-08T00:15:41;20.02;;;6.88;;
60370;SDS011;48550;40.588;49.684;2023-10-08T00:18:21;20.20;;;7.53;;
60370;SDS011;48550;40.588;49.684;2023-10-08T00:20:48;17.48;;;6.70;;
60370;SDS011;48550;40.588;49.684;2023-10-08T00:23:40;16.10;;;6.53;;
60370;SDS011;48550;40.588;49.684;2023-10-08T00:26:25;14.27;;;6.55;;
60370;SDS011;48550;40.588;49.684;2023-10-08T00:28:58;23.27;;;7.13;;
60370;SDS011;48550;40.588;49.684;2023-10-08T00:31:46;20.65;;;7.75;;
60370;SDS011;48550;40.588;49.684;2023-10-08T00:34:14;16.25;;;6.95;;
60370;SDS011;48550;40.588;49.684;2023-10-08T00:36:47;19.15;;;6.78;;
60370;SDS011;48550;40.588;49.684;2023-10-08T00:39:14;17.48;;;6.72;;
60370;SDS011;48550;40.588;49.684;2023-10-08T00:41:47;16.35;;;6.80;;
60370;SDS011;48550;40.588;49.684;2023-10-08T00:44:15;25.20;;;7.72;;
60370;SDS011;48550;40.588;49.684;2023-10-08T00:46:48;17.70;;;7.22;;
60370;SDS011;48550;40.588;49.684;2023-10-08T00:49:19;17.15;;;7.75;;
60370;SDS011;48550;40.588;49.684;2023-10-08T00:51:57;16.98;;;7.05;;
60370;SDS011;48550;40.588;49.684;2023-10-08T00:54:31;18.20;;;7.65;;
60370;SDS011;48550;40.588;49.684;2023-10-08T00:56:58;21.13;;;7.15;;
60370;SDS011;48550;40.588;49.684;2023-10-08T00:59:29;19.33;;;7.22;;
60370;SDS011;48550;40.588;49.684;2023-10-08T01:02:10;16.63;;;7.72;;
60370;SDS011;48550;40.588;49.684;2023-10-08T01:04:40;21.55;;;7.40;;
60370;SDS011;48550;40.588;49.684;2023-10-08T01:07:09;17.33;;;6.45;;
60370;SDS011;48550;40.588;49.684;2023-10-08T01:09:41;17.45;;;7.55;;
60370;SDS011;48550;40.588;49.684;2023-10-08T01:14:40;18.90;;;7.10;;
60370;SDS011;48550;40.588;49.684;2023-10-08T01:17:08;19.92;;;7.10;;
60370;SDS011;48550;40.588;49.684;2023-10-08T01:19:37;17.30;;;7.38;;
60370;SDS011;48550;40.588;49.684;2023-10-08T01:22:07;17.02;;;7.22;;
60370;SDS011;48550;40.588;49.684;2023-10-08T01:24:42;19.30;;;7.45;;
60370;SDS011;48550;40.588;49.684;2023-10-08T01:27:08;17.83;;;7.90;;
60370;SDS011;48550;40.588;49.684;2023-10-08T01:29:37;18.73;;;6.38;;
60370;SDS011;48550;40.588;49.684;2023-10-08T01:32:04;14.00;;;7.55;;
60370;SDS011;48550;40.588;49.684;2023-10-08T01:34:36;17.07;;;6.47;;
60370;SDS011;48550;40.588;49.684;2023-10-08T01:37:04;22.27;;;7.40;;
60370;SDS011;48550;40.588;49.684;2023-10-08T01:39:36;19.92;;;6.97;;
60370;SDS011;48550;40.588;49.684;2023-10-08T01:42:07;14.88;;;6.72;;
60370;SDS011;48550;40.588;49.684;2023-10-08T01:44:40;15.05;;;7.78;;
60370;SDS011;48550;40.588;49.684;2023-10-08T01:47:07;18.88;;;7.78;;
60370;SDS011;48550;40.588;49.684;2023-10-08T01:49:32;21.80;;;7.20;;
60370;SDS011;48550;40.588;49.684;2023-10-08T01:51:59;15.98;;;6.82;;
60370;SDS011;48550;40.588;49.684;2023-10-08T01:54:30;13.95;;;6.97;;
60370;SDS011;48550;40.588;49.684;2023-10-08T01:57:00;18.65;;;6.97;;
60370;SDS011;48550;40.588;49.684;2023-10-08T01:59:26;17.92;;;8.15;;
60370;SDS011;48550;40.588;49.684;2023-10-08T02:01:52;25.95;;;8.15;;
60370;SDS011;48550;40.588;49.684;2023-10-08T02:04:22;18.00;;;8.35;;
60370;SDS011;48550;40.588;49.684;2023-10-08T02:06:47;17.88;;;8.70;;
60370;SDS011;48550;40.588;49.684;2023-10-08T02:09:13;22.48;;;8.73;;
60370;SDS011;48550;40.588;49.684;2023-10-08T02:11:44;20.73;;;9.20;;
60370;SDS011;48550;40.588;49.684;2023-10-08T02:14:11;23.33;;;8.93;;
60370;SDS011;48550;40.588;49.684;2023-10-08T02:16:40;23.33;;;9.40;;
60370;SDS011;48550;40.588;49.684;2023-10-08T02:19:07;20.23;;;9.05;;
60370;SDS011;48550;40.588;49.684;2023-10-08T02:21:36;18.48;;;8.00;;
60370;SDS011;48550;40.588;49.684;2023-10-08T02:24:05;20.60;;;8.60;;
60370;SDS011;48550;40.588;49.684;2023-10-08T02:26:36;22.02;;;9.35;;
60370;SDS011;48550;40.588;49.684;2023-10-08T02:29:03;21.88;;;9.38;;
60370;SDS011;48550;40.588;49.684;2023-10-08T02:31:38;24.00;;;10.63;;
60370;SDS011;48550;40.588;49.684;2023-10-08T02:34:07;22.05;;;8.57;;
60370;SDS011;48550;40.588;49.684;2023-10-08T02:36:36;26.23;;;10.02;;
60370;SDS011;48550;40.588;49.684;2023-10-08T02:39:02;28.52;;;9.80;;
60370;SDS011;48550;40.588;49.684;2023-10-08T02:41:49;25.85;;;10.10;;
60370;SDS011;48550;40.588;49.684;2023-10-08T02:44:17;25.55;;;9.98;;
60370;SDS011;48550;40.588;49.684;2023-10-08T02:46:44;18.23;;;9.00;;
60370;SDS011;48550;40.588;49.684;2023-10-08T02:49:12;20.08;;;9.52;;
60370;SDS011;48550;40.588;49.684;2023-10-08T02:51:42;23.20;;;9.55;;
60370;SDS011;48550;40.588;49.684;2023-10-08T02:54:10;21.20;;;10.05;;
60370;SDS011;48550;40.588;49.684;2023-10-08T02:56:47;17.80;;;9.38;;
60370;SDS011;48550;40.588;49.684;2023-10-08T02:59:17;15.70;;;7.93;;
60370;SDS011;48550;40.588;49.684;2023-10-08T03:01:47;18.20;;;8.75;;
60370;SDS011;48550;40.588;49.684;2023-10-08T03:04:22;20.23;;;8.90;;
60370;SDS011;48550;40.588;49.684;2023-10-08T03:06:48;21.88;;;9.82;;
60370;SDS011;48550;40.588;49.684;2023-10-08T03:09:24;18.83;;;8.60;;
60370;SDS011;48550;40.588;49.684;2023-10-08T03:11:51;18.58;;;9.02;;
60370;SDS011;48550;40.588;49.684;2023-10-08T03:14:18;20.75;;;8.55;;
60370;SDS011;48550;40.588;49.684;2023-10-08T03:16:51;23.10;;;8.25;;
60370;SDS011;48550;40.588;49.684;2023-10-08T03:19:18;18.73;;;8.18;;
60370;SDS011;48550;40.588;49.684;2023-10-08T03:21:49;19.80;;;8.18;;
60370;SDS011;48550;40.588;49.684;2023-10-08T03:24:22;18.13;;;7.93;;
60370;SDS011;48550;40.588;49.684;2023-10-08T03:27:00;19.88;;;8.68;;
60370;SDS011;48550;40.588;49.684;2023-10-08T03:29:53;24.45;;;9.40;;
60370;SDS011;48550;40.588;49.684;2023-10-08T03:32:19;19.08;;;8.07;;
60370;SDS011;48550;40.588;49.684;2023-10-08T03:34:51;17.85;;;8.32;;
60370;SDS011;48550;40.588;49.684;2023-10-08T03:37:21;21.30;;;8.73;;
60370;SDS011;48550;40.588;49.684;2023-10-08T03:39:55;20.90;;;8.52;;
60370;SDS011;48550;40.588;49.684;2023-10-08T03:42:50;18.30;;;8.30;;
60370;SDS011;48550;40.588;49.684;2023-10-08T03:45:17;18.23;;;9.30;;
60370;SDS011;48550;40.588;49.684;2023-10-08T03:48:02;20.55;;;9.75;;
60370;SDS011;48550;40.588;49.684;2023-10-08T03:50:34;26.55;;;11.48;;
60370;SDS011;48550;40.588;49.684;2023-10-08T03:53:09;21.77;;;10.57;;
60370;SDS011;48550;40.588;49.684;2023-10-08T03:55:38;23.67;;;10.30;;
60370;SDS011;48550;40.588;49.684;2023-10-08T03:58:08;20.50;;;9.13;;
60370;SDS011;48550;40.588;49.684;2023-10-08T04:00:52;19.33;;;9.65;;
60370;SDS011;48550;40.588;49.684;2023-10-08T04:03:33;21.88;;;10.38;;
60370;SDS011;48550;40.588;49.684;2023-10-08T04:06:28;21.27;;;8.63;;
60370;SDS011;48550;40.588;49.684;2023-10-08T04:09:04;20.25;;;9.45;;
60370;SDS011;48550;40.588;49.684;2023-10-08T04:11:33;19.95;;;7.93;;
60370;SDS011;48550;40.588;49.684;2023-10-08T04:14:24;17.70;;;8.38;;
60370;SDS011;48550;40.588;49.684;2023-10-08T04:16:53;22.45;;;8.35;;
60370;SDS011;48550;40.588;49.684;2023-10-08T04:19:19;16.60;;;8.45;;
60370;SDS011;48550;40.588;49.684;2023-10-08T04:21:47;17.58;;;8.02;;
60370;SDS011;48550;40.588;49.684;2023-10-08T04:26:46;16.40;;;8.23;;
60370;SDS011;48550;40.588;49.684;2023-10-08T04:29:13;18.90;;;9.30;;
60370;SDS011;48550;40.588;49.684;2023-10-08T04:31:41;13.93;;;7.90;;
60370;SDS011;48550;40.588;49.684;2023-10-08T04:34:12;14.60;;;7.53;;
60370;SDS011;48550;40.588;49.684;2023-10-08T04:36:46;16.13;;;7.32;;
60370;SDS011;48550;40.588;49.684;2023-10-08T04:39:26;16.38;;;7.25;;
60370;SDS011;48550;40.588;49.684;2023-10-08T04:41:59;14.43;;;7.07;;
60370;SDS011;48550;40.588;49.684;2023-10-08T04:44:35;16.35;;;7.82;;
60370;SDS011;48550;40.588;49.684;2023-10-08T04:47:09;15.77;;;7.30;;
60370;SDS011;48550;40.588;49.684;2023-10-08T04:49:37;16.85;;;7.75;;
60370;SDS011;48550;40.588;49.684;2023-10-08T04:52:10;18.23;;;7.13;;
60370;SDS011;48550;40.588;49.684;2023-10-08T04:54:42;20.40;;;7.13;;
60370;SDS011;48550;40.588;49.684;2023-10-08T04:57:17;12.60;;;6.43;;
60370;SDS011;48550;40.588;49.684;2023-10-08T04:59:47;19.27;;;6.45;;
60370;SDS011;48550;40.588;49.684;2023-10-08T05:02:15;13.93;;;6.10;;
60370;SDS011;48550;40.588;49.684;2023-10-08T05:04:50;11.45;;;6.50;;
60370;SDS011;48550;40.588;49.684;2023-10-08T05:07:16;15.77;;;6.60;;
60370;SDS011;48550;40.588;49.684;2023-10-08T05:09:46;17.23;;;6.57;;
60370;SDS011;48550;40.588;49.684;2023-10-08T05:12:30;11.70;;;6.30;;
60370;SDS011;48550;40.588;49.684;2023-10-08T05:15:03;17.95;;;7.25;;
60370;SDS011;48550;40.588;49.684;2023-10-08T05:17:39;16.83;;;5.90;;
60370;SDS011;48550;40.588;49.684;2023-10-08T05:20:15;17.60;;;6.65;;
60370;SDS011;48550;40.588;49.684;2023-10-08T05:23:09;12.88;;;6.10;;
60370;SDS011;48550;40.588;49.684;2023-10-08T05:25:56;17.80;;;6.63;;
60370;SDS011;48550;40.588;49.684;2023-10-08T05:28:35;12.93;;;6.60;;
60370;SDS011;48550;40.588;49.684;2023-10-08T05:31:12;12.63;;;6.18;;
60370;SDS011;48550;40.588;49.684;2023-10-08T05:33:42;12.85;;;7.35;;
60370;SDS011;48550;40.588;49.684;2023-10-08T05:36:27;14.02;;;6.10;;
60370;SDS011;48550;40.588;49.684;2023-10-08T05:38:59;14.02;;;6.32;;
60370;SDS011;48550;40.588;49.684;2023-10-08T05:41:45;12.80;;;5.93;;
60370;SDS011;48550;40.588;49.684;2023-10-08T05:44:17;17.35;;;6.70;;
60370;SDS011;48550;40.588;49.684;2023-10-08T05:46:43;16.67;;;5.85;;
60370;SDS011;48550;40.588;49.684;2023-10-08T05:49:16;13.05;;;5.60;;
60370;SDS011;48550;40.588;49.684;2023-10-08T05:52:02;14.05;;;6.55;;
60370;SDS011;48550;40.588;49.684;2023-10-08T05:54:28;15.43;;;6.20;;
60370;SDS011;48550;40.588;49.684;2023-10-08T05:57:00;10.82;;;6.25;;
60370;SDS011;48550;40.588;49.684;2023-10-08T05:59:35;13.90;;;5.88;;
60370;SDS011;48550;40.588;49.684;2023-10-08T06:02:23;14.23;;;5.85;;
60370;SDS011;48550;40.588;49.684;2023-10-08T06:07:46;17.75;;;5.95;;
60370;SDS011;48550;40.588;49.684;2023-10-08T06:10:20;12.90;;;6.65;;
60370;SDS011;48550;40.588;49.684;2023-10-08T06:12:55;10.52;;;5.65;;
60370;SDS011;48550;40.588;49.684;2023-10-08T06:15:48;11.95;;;5.50;;
60370;SDS011;48550;40.588;49.684;2023-10-08T06:18:22;12.88;;;5.70;;
60370;SDS011;48550;40.588;49.684;2023-10-08T06:20:55;12.35;;;5.22;;
60370;SDS011;48550;40.588;49.684;2023-10-08T06:23:26;13.30;;;6.22;;
60370;SDS011;48550;40.588;49.684;2023-10-08T06:25:54;13.95;;;5.65;;
60370;SDS011;48550;40.588;49.684;2023-10-08T06:28:24;10.98;;;5.35;;
60370;SDS011;48550;40.588;49.684;2023-10-08T06:30:55;14.95;;;5.53;;
60370;SDS011;48550;40.588;49.684;2023-10-08T06:33:24;13.68;;;5.75;;
60370;SDS011;48550;40.588;49.684;2023-10-08T06:35:58;14.43;;;5.63;;
60370;SDS011;48550;40.588;49.684;2023-10-08T06:38:29;13.55;;;5.55;;
60370;SDS011;48550;40.588;49.684;2023-10-08T06:40:59;12.40;;;5.53;;
60370;SDS011;48550;40.588;49.684;2023-10-08T06:43:29;13.50;;;5.90;;
60370;SDS011;48550;40.588;49.684;2023-10-08T06:45:54;28.17;;;6.88;;
60370;SDS011;48550;40.588;49.684;2023-10-08T06:48:23;18.48;;;5.72;;
60370;SDS011;48550;40.588;49.684;2023-10-08T06:50:50;17.40;;;5.80;;
60370;SDS011;48550;40.588;49.684;2023-10-08T06:53:22;16.52;;;5.82;;
60370;SDS011;48550;40.588;49.684;2023-10-08T06:55:49;10.40;;;5.28;;
60370;SDS011;48550;40.588;49.684;2023-10-08T06:58:22;14.23;;;5.68;;
60370;SDS011;48550;40.588;49.684;2023-10-08T07:00:49;9.38;;;4.82;;
60370;SDS011;48550;40.588;49.684;2023-10-08T07:03:15;15.20;;;5.35;;
60370;SDS011;48550;40.588;49.684;2023-10-08T07:05:43;14.02;;;4.72;;
60370;SDS011;48550;40.588;49.684;2023-10-08T07:08:21;15.63;;;5.93;;
60370;SDS011;48550;40.588;49.684;2023-10-08T07:10:51;17.08;;;5.53;;
60370;SDS011;48550;40.588;49.684;2023-10-08T07:13:18;13.80;;;5.45;;
60370;SDS011;48550;40.588;49.684;2023-10-08T07:15:48;13.70;;;5.47;;
60370;SDS011;48550;40.588;49.684;2023-10-08T07:18:15;9.98;;;4.90;;
60370;SDS011;48550;40.588;49.684;2023-10-08T07:20:47;15.00;;;4.93;;
60370;SDS011;48550;40.588;49.684;2023-10-08T07:23:22;14.60;;;5.88;;
60370;SDS011;48550;40.588;49.684;2023-10-08T07:26:01;13.65;;;5.25;;
60370;SDS011;48550;40.588;49.684;2023-10-08T07:28:40;12.55;;;5.85;;
60370;SDS011;48550;40.588;49.684;2023-10-08T07:31:16;15.85;;;6.35;;
60370;SDS011;48550;40.588;49.684;2023-10-08T07:33:47;14.27;;;5.75;;
60370;SDS011;48550;40.588;49.684;2023-10-08T07:36:24;15.57;;;5.32;;
60370;SDS011;48550;40.588;49.684;2023-10-08T07:38:53;13.52;;;5.28;;
60370;SDS011;48550;40.588;49.684;2023-10-08T07:41:19;14.00;;;4.95;;
60370;SDS011;48550;40.588;49.684;2023-10-08T07:43:46;14.13;;;5.70;;
60370;SDS011;48550;40.588;49.684;2023-10-08T07:46:22;17.23;;;6.88;;
60370;SDS011;48550;40.588;49.684;2023-10-08T07:48:51;22.35;;;5.78;;
60370;SDS011;48550;40.588;49.684;2023-10-08T07:51:17;12.55;;;5.38;;
60370;SDS011;48550;40.588;49.684;2023-10-08T07:53:50;20.33;;;5.93;;
60370;SDS011;48550;40.588;49.684;2023-10-08T07:56:21;19.75;;;5.65;;
60370;SDS011;48550;40.588;49.684;2023-10-08T07:58:49;15.25;;;5.90;;
60370;SDS011;48550;40.588;49.684;2023-10-08T08:01:15;22.45;;;5.90;;
60370;SDS011;48550;40.588;49.684;2023-10-08T08:03:41;10.75;;;5.03;;
60370;SDS011;48550;40.588;49.684;2023-10-08T08:06:07;10.40;;;5.20;;
60370;SDS011;48550;40.588;49.684;2023-10-08T08:08:38;15.18;;;5.55;;
60370;SDS011;48550;40.588;49.684;2023-10-08T08:11:07;18.92;;;5.18;;
60370;SDS011;48550;40.588;49.684;2023-10-08T08:13:42;13.05;;;5.30;;
60370;SDS011;48550;40.588;49.684;2023-10-08T08:16:13;12.32;;;5.13;;
60370;SDS011;48550;40.588;49.684;2023-10-08T08:21:12;11.73;;;4.90;;
60370;SDS011;48550;40.588;49.684;2023-10-08T08:23:43;17.75;;;5.60;;
60370;SDS011;48550;40.588;49.684;2023-10-08T08:28:58;13.65;;;4.88;;
60370;SDS011;48550;40.588;49.684;2023-10-08T08:31:27;15.45;;;5.47;;
60370;SDS011;48550;40.588;49.684;2023-10-08T08:33:56;10.52;;;4.93;;
60370;SDS011;48550;40.588;49.684;2023-10-08T08:36:28;14.63;;;5.57;;
60370;SDS011;48550;40.588;49.684;2023-10-08T08:38:59;10.48;;;5.05;;
60370;SDS011;48550;40.588;49.684;2023-10-08T08:41:25;13.85;;;5.05;;
60370;SDS011;48550;40.588;49.684;2023-10-08T08:43:53;16.00;;;5.10;;
60370;SDS011;48550;40.588;49.684;2023-10-08T08:46:35;11.90;;;4.88;;
60370;SDS011;48550;40.588;49.684;2023-10-08T08:49:11;20.55;;;7.22;;
60370;SDS011;48550;40.588;49.684;2023-10-08T08:51:38;16.20;;;5.82;;
60370;SDS011;48550;40.588;49.684;2023-10-08T08:54:04;8.55;;;4.60;;
60370;SDS011;48550;40.588;49.684;2023-10-08T08:56:34;12.93;;;5.10;;
60370;SDS011;48550;40.588;49.684;2023-10-08T08:59:04;22.02;;;5.55;;
60370;SDS011;48550;40.588;49.684;2023-10-08T09:01:30;13.75;;;5.45;;
60370;SDS011;48550;40.588;49.684;2023-10-08T09:04:00;12.90;;;5.57;;
60370;SDS011;48550;40.588;49.684;2023-10-08T09:06:33;17.98;;;6.95;;
60370;SDS011;48550;40.588;49.684;2023-10-08T09:09:00;14.23;;;5.55;;
60370;SDS011;48550;40.588;49.684;2023-10-08T09:11:44;13.13;;;5.47;;
60370;SDS011;48550;40.588;49.684;2023-10-08T09:14:10;11.43;;;5.05;;
60370;SDS011;48550;40.588;49.684;2023-10-08T09:16:36;11.65;;;5.30;;
60370;SDS011;48550;40.588;49.684;2023-10-08T09:19:02;10.05;;;4.18;;
60370;SDS011;48550;40.588;49.684;2023-10-08T09:21:29;10.95;;;4.53;;
60370;SDS011;48550;40.588;49.684;2023-10-08T09:23:55;11.90;;;4.88;;
60370;SDS011;48550;40.588;49.684;2023-10-08T09:26:24;12.23;;;5.50;;
60370;SDS011;48550;40.588;49.684;2023-10-08T09:28:54;10.57;;;4.25;;
60370;SDS011;48550;40.588;49.684;2023-10-08T09:31:22;15.10;;;5.82;;
60370;SDS011;48550;40.588;49.684;2023-10-08T09:33:55;14.77;;;5.03;;
60370;SDS011;48550;40.588;49.684;2023-10-08T09:36:22;15.27;;;5.15;;
60370;SDS011;48550;40.588;49.684;2023-10-08T09:39:00;10.98;;;4.65;;
60370;SDS011;48550;40.588;49.684;2023-10-08T09:41:29;12.02;;;4.88;;
60370;SDS011;48550;40.588;49.684;2023-10-08T09:43:57;11.05;;;4.20;;
60370;SDS011;48550;40.588;49.684;2023-10-08T09:46:29;8.20;;;3.80;;
60370;SDS011;48550;40.588;49.684;2023-10-08T09:49:00;13.25;;;4.55;;
60370;SDS011;48550;40.588;49.684;2023-10-08T09:51:28;11.02;;;4.30;;
60370;SDS011;48550;40.588;49.684;2023-10-08T09:56:45;17.23;;;4.97;;
60370;SDS011;48550;40.588;49.684;2023-10-08T09:59:13;9.63;;;3.70;;
60370;SDS011;48550;40.588;49.684;2023-10-08T10:01:40;13.25;;;4.05;;
60370;SDS011;48550;40.588;49.684;2023-10-08T10:04:08;17.13;;;5.30;;
60370;SDS011;48550;40.588;49.684;2023-10-08T10:06:35;12.38;;;4.50;;
60370;SDS011;48550;40.588;49.684;2023-10-08T10:09:01;14.52;;;4.10;;
60370;SDS011;48550;40.588;49.684;2023-10-08T10:11:31;12.68;;;4.40;;
60370;SDS011;48550;40.588;49.684;2023-10-08T10:14:01;12.45;;;4.07;;
60370;SDS011;48550;40.588;49.684;2023-10-08T10:16:31;16.92;;;5.15;;
60370;SDS011;48550;40.588;49.684;2023-10-08T10:18:59;12.18;;;4.15;;
60370;SDS011;48550;40.588;49.684;2023-10-08T10:21:32;9.70;;;3.58;;
60370;SDS011;48550;40.588;49.684;2023-10-08T10:23:58;25.15;;;3.90;;
60370;SDS011;48550;40.588;49.684;2023-10-08T10:26:28;10.48;;;4.25;;
60370;SDS011;48550;40.588;49.684;2023-10-08T10:31:39;10.93;;;4.50;;
60370;SDS011;48550;40.588;49.684;2023-10-08T10:34:10;11.07;;;5.07;;
60370;SDS011;48550;40.588;49.684;2023-10-08T10:36:40;19.42;;;5.70;;
60370;SDS011;48550;40.588;49.684;2023-10-08T10:39:07;10.07;;;4.20;;
60370;SDS011;48550;40.588;49.684;2023-10-08T10:41:51;18.38;;;4.35;;
60370;SDS011;48550;40.588;49.684;2023-10-08T10:44:25;14.33;;;4.47;;
60370;SDS011;48550;40.588;49.684;2023-10-08T10:46:51;18.27;;;4.57;;
60370;SDS011;48550;40.588;49.684;2023-10-08T10:49:25;20.92;;;5.70;;
60370;SDS011;48550;40.588;49.684;2023-10-08T10:51:57;11.40;;;4.40;;
60370;SDS011;48550;40.588;49.684;2023-10-08T10:54:23;10.40;;;4.18;;
60370;SDS011;48550;40.588;49.684;2023-10-08T10:56:50;10.10;;;5.00;;
60370;SDS011;48550;40.588;49.684;2023-10-08T10:59:46;13.60;;;4.40;;
60370;SDS011;48550;40.588;49.684;2023-10-08T11:02:18;12.13;;;4.45;;
60370;SDS011;48550;40.588;49.684;2023-10-08T11:04:55;15.15;;;4.43;;
60370;SDS011;48550;40.588;49.684;2023-10-08T11:07:32;15.90;;;3.95;;
60370;SDS011;48550;40.588;49.684;2023-10-08T11:09:59;16.38;;;5.15;;
60370;SDS011;48550;40.588;49.684;2023-10-08T11:12:26;17.00;;;4.53;;
60370;SDS011;48550;40.588;49.684;2023-10-08T11:15:11;15.35;;;3.78;;
60370;SDS011;48550;40.588;49.684;2023-10-08T11:17:41;11.60;;;3.72;;
60370;SDS011;48550;40.588;49.684;2023-10-08T11:20:28;29.67;;;5.18;;
60370;SDS011;48550;40.588;49.684;2023-10-08T11:22:57;18.75;;;5.28;;
60370;SDS011;48550;40.588;49.684;2023-10-08T11:25:51;9.63;;;4.10;;
60370;SDS011;48550;40.588;49.684;2023-10-08T11:28:25;11.85;;;3.92;;
60370;SDS011;48550;40.588;49.684;2023-10-08T11:30:52;14.35;;;5.13;;
60370;SDS011;48550;40.588;49.684;2023-10-08T11:33:19;10.57;;;4.05;;
60370;SDS011;48550;40.588;49.684;2023-10-08T11:35:54;14.48;;;4.68;;
60370;SDS011;48550;40.588;49.684;2023-10-08T11:38:24;10.23;;;4.00;;
60370;SDS011;48550;40.588;49.684;2023-10-08T11:40:50;14.07;;;4.70;;
60370;SDS011;48550;40.588;49.684;2023-10-08T11:43:22;12.03;;;4.60;;
60370;SDS011;48550;40.588;49.684;2023-10-08T11:45:48;10.10;;;3.90;;
60370;SDS011;48550;40.588;49.684;2023-10-08T11:48:14;19.20;;;5.15;;
60370;SDS011;48550;40.588;49.684;2023-10-08T11:50:47;16.67;;;4.95;;
60370;SDS011;48550;40.588;49.684;2023-10-08T11:53:15;9.45;;;5.50;;
60370;SDS011;48550;40.588;49.684;2023-10-08T11:55:44;11.77;;;4.15;;
60370;SDS011;48550;40.588;49.684;2023-10-08T11:58:13;11.45;;;4.60;;
60370;SDS011;48550;40.588;49.684;2023-10-08T12:00:43;9.52;;;4.50;;
60370;SDS011;48550;40.588;49.684;2023-10-08T12:03:09;14.98;;;5.03;;
60370;SDS011;48550;40.588;49.684;2023-10-08T12:05:43;10.10;;;4.43;;
60370;SDS011;48550;40.588;49.684;2023-10-08T12:08:15;13.43;;;5.03;;
60370;SDS011;48550;40.588;49.684;2023-10-08T12:10:43;10.65;;;4.95;;
60370;SDS011;48550;40.588;49.684;2023-10-08T12:13:11;11.93;;;4.80;;
60370;SDS011;48550;40.588;49.684;2023-10-08T12:15:37;12.80;;;4.05;;
60370;SDS011;48550;40.588;49.684;2023-10-08T12:18:06;9.90;;;4.22;;
60370;SDS011;48550;40.588;49.684;2023-10-08T12:20:50;13.77;;;4.25;;
60370;SDS011;48550;40.588;49.684;2023-10-08T12:23:16;11.00;;;4.50;;
60370;SDS011;48550;40.588;49.684;2023-10-08T12:25:51;12.57;;;5.07;;
60370;SDS011;48550;40.588;49.684;2023-10-08T12:28:18;12.40;;;4.75;;
60370;SDS011;48550;40.588;49.684;2023-10-08T12:30:44;10.35;;;4.88;;
60370;SDS011;48550;40.588;49.684;2023-10-08T12:33:11;11.32;;;5.00;;
60370;SDS011;48550;40.588;49.684;2023-10-08T12:35:43;9.68;;;4.45;;
60370;SDS011;48550;40.588;49.684;2023-10-08T12:38:09;22.77;;;6.30;;
60370;SDS011;48550;40.588;49.684;2023-10-08T12:40:36;10.90;;;4.75;;
60370;SDS011;48550;40.588;49.684;2023-10-08T12:43:21;18.15;;;4.78;;
60370;SDS011;48550;40.588;49.684;2023-10-08T12:45:48;13.63;;;5.10;;
60370;SDS011;48550;40.588;49.684;2023-10-08T12:48:20;10.00;;;4.63;;
60370;SDS011;48550;40.588;49.684;2023-10-08T12:50:48;12.02;;;5.43;;
60370;SDS011;48550;40.588;49.684;2023-10-08T12:53:27;13.35;;;4.95;;
60370;SDS011;48550;40.588;49.684;2023-10-08T12:56:02;16.05;;;4.65;;
60370;SDS011;48550;40.588;49.684;2023-10-08T12:58:36;15.85;;;5.35;;
60370;SDS011;48550;40.588;49.684;2023-10-08T13:01:13;10.65;;;3.97;;
60370;SDS011;48550;40.588;49.684;2023-10-08T13:03:42;10.27;;;4.13;;
60370;SDS011;48550;40.588;49.684;2023-10-08T13:06:19;16.67;;;4.90;;
60370;SDS011;48550;40.588;49.684;2023-10-08T13:08:53;10.88;;;4.57;;
60370;SDS011;48550;40.588;49.684;2023-10-08T13:11:23;11.60;;;4.13;;
60370;SDS011;48550;40.588;49.684;2023-10-08T13:13:50;15.80;;;5.32;;
60370;SDS011;48550;40.588;49.684;2023-10-08T13:16:18;18.05;;;5.10;;
60370;SDS011;48550;40.588;49.684;2023-10-08T13:18:49;16.02;;;5.35;;
60370;SDS011;48550;40.588;49.684;2023-10-08T13:21:16;11.00;;;5.30;;
60370;SDS011;48550;40.588;49.684;2023-10-08T13:23:44;15.45;;;5.53;;
60370;SDS011;48550;40.588;49.684;2023-10-08T13:26:11;12.20;;;5.28;;
60370;SDS011;48550;40.588;49.684;2023-10-08T13:28:42;9.60;;;4.20;;
60370;SDS011;48550;40.588;49.684;2023-10-08T13:31:09;12.63;;;4.50;;
60370;SDS011;48550;40.588;49.684;2023-10-08T13:33:36;10.43;;;4.43;;
60370;SDS011;48550;40.588;49.684;2023-10-08T13:36:08;15.98;;;5.32;;
60370;SDS011;48550;40.588;49.684;2023-10-08T13:38:37;13.30;;;4.90;;
60370;SDS011;48550;40.588;49.684;2023-10-08T13:41:04;12.93;;;5.75;;
60370;SDS011;48550;40.588;49.684;2023-10-08T13:43:43;19.63;;;5.05;;
60370;SDS011;48550;40.588;49.684;2023-10-08T13:46:17;14.23;;;5.82;;
60370;SDS011;48550;40.588;49.684;2023-10-08T13:48:47;10.75;;;4.90;;
60370;SDS011;48550;40.588;49.684;2023-10-08T13:51:20;14.82;;;5.05;;
60370;SDS011;48550;40.588;49.684;2023-10-08T13:53:54;18.45;;;6.95;;
60370;SDS011;48550;40.588;49.684;2023-10-08T13:56:24;14.50;;;5.18;;
60370;SDS011;48550;40.588;49.684;2023-10-08T13:58:56;17.65;;;8.05;;
60370;SDS011;48550;40.588;49.684;2023-10-08T14:01:38;13.75;;;5.45;;
60370;SDS011;48550;40.588;49.684;2023-10-08T14:04:25;13.57;;;4.90;;
60370;SDS011;48550;40.588;49.684;2023-10-08T14:06:59;14.10;;;5.97;;
60370;SDS011;48550;40.588;49.684;2023-10-08T14:09:27;16.08;;;5.97;;
60370;SDS011;48550;40.588;49.684;2023-10-08T14:11:56;16.95;;;5.40;;
60370;SDS011;48550;40.588;49.684;2023-10-08T14:14:22;9.95;;;4.85;;
60370;SDS011;48550;40.588;49.684;2023-10-08T14:19:25;20.77;;;8.25;;
60370;SDS011;48550;40.588;49.684;2023-10-08T14:22:01;25.88;;;9.50;;
60370;SDS011;48550;40.588;49.684;2023-10-08T14:27:03;17.02;;;7.57;;
60370;SDS011;48550;40.588;49.684;2023-10-08T14:29:36;15.88;;;7.43;;
60370;SDS011;48550;40.588;49.684;2023-10-08T14:32:15;17.40;;;5.82;;
60370;SDS011;48550;40.588;49.684;2023-10-08T14:34:40;23.58;;;8.65;;
60370;SDS011;48550;40.588;49.684;2023-10-08T14:37:12;24.50;;;9.90;;
60370;SDS011;48550;40.588;49.684;2023-10-08T14:39:56;28.92;;;11.95;;
60370;SDS011;48550;40.588;49.684;2023-10-08T14:42:41;34.90;;;15.88;;
60370;SDS011;48550;40.588;49.684;2023-10-08T14:45:23;25.02;;;12.65;;
60370;SDS011;48550;40.588;49.684;2023-10-08T14:47:56;22.23;;;8.70;;
60370;SDS011;48550;40.588;49.684;2023-10-08T14:50:23;19.67;;;8.38;;
60370;SDS011;48550;40.588;49.684;2023-10-08T14:52:53;17.40;;;7.55;;
60370;SDS011;48550;40.588;49.684;2023-10-08T14:55:20;21.90;;;10.27;;
60370;SDS011;48550;40.588;49.684;2023-10-08T14:57:49;18.23;;;9.05;;
60370;SDS011;48550;40.588;49.684;2023-10-08T15:00:18;21.48;;;9.68;;
60370;SDS011;48550;40.588;49.684;2023-10-08T15:02:54;21.95;;;9.48;;
60370;SDS011;48550;40.588;49.684;2023-10-08T15:05:20;18.38;;;7.93;;
60370;SDS011;48550;40.588;49.684;2023-10-08T15:07:48;18.15;;;9.77;;
60370;SDS011;48550;40.588;49.684;2023-10-08T15:10:15;19.23;;;7.93;;